Time;durP1;ratioP1;P1;durP2;ratioP2;P2;SDS_P1;SDS_P2;PMS_P1;PMS_P2;Temp;Humidity;BMP_temperature;BMP_pressure;BME280_temperature;BME280_humidity;BME280_pressure;Samples;Min_cycle;Max_cycle;Signal;HPM_P1;HPM_P2
2022/03/30 00:01:25;;;;;;;20.55;14.52;;;;;;;8.64;52.67;94736.16;4991794;28;20027;-62
2022/03/30 00:03:51;;;;;;;19.85;13.50;;;;;;;8.46;52.86;94709.81;4992016;28;20088;-63
2022/03/30 00:06:17;;;;;;;21.58;14.07;;;;;;;8.49;52.81;94719.06;4991795;28;20037;-63
2022/03/30 00:08:43;;;;;;;17.77;12.60;;;;;;;8.49;53.12;94718.25;4991792;28;20037;-61
2022/03/30 00:11:10;;;;;;;19.02;14.07;;;;;;;8.36;53.55;94713.81;4991359;28;20770;-61
2022/03/30 00:13:35;;;;;;;21.23;12.73;;;;;;;8.33;52.98;94708.88;4992017;28;20105;-62
2022/03/30 00:16:02;;;;;;;19.98;13.00;;;;;;;8.40;53.10;94723.00;4991431;28;20111;-68
2022/03/30 00:18:28;;;;;;;22.77;14.30;;;;;;;8.25;53.05;94700.78;4991804;28;20570;-61
2022/03/30 00:20:53;;;;;;;22.48;14.48;;;;;;;8.27;53.62;94714.34;4989977;28;20073;-63
2022/03/30 00:23:19;;;;;;;24.90;15.32;;;;;;;8.31;53.54;94723.53;4991246;28;20038;-62
2022/03/30 00:25:44;;;;;;;24.63;14.25;;;;;;;8.24;53.98;94717.91;4991403;28;20118;-64
2022/03/30 00:28:10;;;;;;;21.20;14.10;;;;;;;8.28;53.81;94723.72;4991837;28;20058;-63
2022/03/30 00:30:36;;;;;;;22.75;14.48;;;;;;;8.29;53.28;94721.03;4991320;28;20073;-65
2022/03/30 00:33:01;;;;;;;22.50;15.25;;;;;;;8.18;53.44;94679.78;4991666;28;20079;-62
2022/03/30 00:35:27;;;;;;;20.70;13.73;;;;;;;8.41;53.92;94711.81;4991341;28;20039;-63
2022/03/30 00:37:52;;;;;;;25.08;15.25;;;;;;;8.05;53.31;94645.44;4991364;28;20715;-64
2022/03/30 00:40:18;;;;;;;22.75;14.13;;;;;;;8.37;53.89;94706.94;4991328;28;20034;-63
2022/03/30 00:42:44;;;;;;;24.38;14.25;;;;;;;8.27;54.02;94698.94;4990739;28;20031;-64
2022/03/30 00:45:12;;;;;;;21.27;14.90;;;;;;;8.06;54.09;94683.03;4990173;28;20038;-62
2022/03/30 00:47:38;;;;;;;23.92;15.50;;;;;;;7.87;54.49;94660.16;4991233;28;20033;-61
2022/03/30 00:50:06;;;;;;;20.45;14.60;;;;;;;8.19;54.58;94719.13;4991125;28;20069;-60
2022/03/30 00:52:32;;;;;;;26.00;15.38;;;;;;;7.94;54.61;94681.22;4990969;28;20649;-63
2022/03/30 00:54:58;;;;;;;23.42;16.17;;;;;;;7.86;54.81;94679.88;4990721;28;20043;-62
2022/03/30 00:57:24;;;;;;;24.05;15.20;;;;;;;7.94;55.03;94694.03;4990599;28;20036;-60
2022/03/30 00:59:51;;;;;;;20.92;14.82;;;;;;;7.97;54.85;94688.69;4990761;28;20062;-62
2022/03/30 01:02:17;;;;;;;27.23;15.82;;;;;;;8.06;54.92;94712.09;4990923;28;20046;-60
2022/03/30 01:04:46;;;;;;;22.92;16.38;;;;;;;7.85;54.92;94683.38;4991001;28;20034;-62
2022/03/30 01:07:13;;;;;;;26.02;16.67;;;;;;;7.84;54.94;94699.69;4990773;28;20039;-63
2022/03/30 01:09:38;;;;;;;21.88;16.40;;;;;;;7.89;55.38;94695.13;4990351;28;20496;-60
2022/03/30 01:12:04;;;;;;;23.08;16.48;;;;;;;8.09;54.91;94700.84;4990634;28;20042;-64
2022/03/30 01:14:31;;;;;;;27.15;16.60;;;;;;;8.10;54.92;94702.50;4990707;28;20030;-62
2022/03/30 01:16:57;;;;;;;29.50;16.73;;;;;;;7.94;54.87;94694.03;4990571;28;20030;-62
2022/03/30 01:19:28;;;;;;;24.23;15.70;;;;;;;7.95;55.35;94693.09;4990307;28;20119;-62
2022/03/30 01:21:53;;;;;;;26.40;15.48;;;;;;;7.29;55.21;94592.50;4988478;28;20116;-64
2022/03/30 01:24:19;;;;;;;27.33;14.85;;;;;;;7.60;55.44;94647.22;4990582;28;20034;-62
2022/03/30 01:26:44;;;;;;;21.58;15.13;;;;;;;7.88;55.47;94696.03;4990304;28;20034;-64
2022/03/30 01:34:40;;;;;;;21.58;15.73;;;;;;;7.69;56.03;94686.00;4990098;28;20041;-60
2022/03/30 01:37:06;;;;;;;18.67;14.32;;;;;;;7.76;56.29;94699.31;4990264;28;20018;-61
2022/03/30 01:39:32;;;;;;;22.38;14.93;;;;;;;7.66;56.18;94686.16;4990402;28;20034;-60
2022/03/30 01:41:58;;;;;;;22.00;15.85;;;;;;;7.56;56.14;94669.66;4989967;28;20030;-61
2022/03/30 01:44:24;;;;;;;26.42;16.35;;;;;;;7.87;56.03;94704.66;4990072;28;20181;-61
2022/03/30 01:46:51;;;;;;;24.25;15.55;;;;;;;7.87;55.92;94706.38;5004366;28;20080;-61
2022/03/30 01:49:21;;;;;;;26.40;15.55;;;;;;;7.87;55.85;94711.50;4990060;28;20026;-60
2022/03/30 01:51:51;;;;;;;26.85;16.25;;;;;;;7.58;56.00;94688.34;4989434;28;20494;-62
2022/03/30 01:54:19;;;;;;;30.92;15.63;;;;;;;7.54;56.50;94682.56;4988508;28;20026;-61
2022/03/30 01:56:45;;;;;;;31.55;18.90;;;;;;;7.34;56.11;94667.44;4989428;28;20062;-62
2022/03/30 01:59:10;;;;;;;23.95;16.10;;;;;;;7.65;56.71;94707.59;4989371;28;20027;-61
2022/03/30 02:01:37;;;;;;;25.65;14.95;;;;;;;7.66;56.40;94698.19;4989471;28;20034;-65
2022/03/30 02:04:03;;;;;;;26.30;15.80;;;;;;;7.55;56.44;94681.63;4989403;28;20778;-62
2022/03/30 02:06:28;;;;;;;25.67;16.42;;;;;;;7.75;56.44;94713.03;4989676;28;20030;-62
2022/03/30 02:08:54;;;;;;;26.30;15.25;;;;;;;7.73;56.53;94714.88;4989406;28;20033;-60
2022/03/30 02:11:19;;;;;;;29.75;15.93;;;;;;;7.73;56.53;94714.88;4989307;28;20521;-60
2022/03/30 02:13:45;;;;;;;27.73;15.05;;;;;;;7.93;56.08;94720.63;4989616;28;20038;-62
2022/03/30 02:16:10;;;;;;;26.25;15.20;;;;;;;7.80;56.25;94715.34;4989347;28;20558;-61
2022/03/30 02:18:36;;;;;;;24.75;16.65;;;;;;;7.54;56.54;94700.53;4989380;28;20033;-61
2022/03/30 02:21:01;;;;;;;23.42;15.30;;;;;;;7.71;56.76;94727.78;4989112;28;20034;-61
2022/03/30 02:23:27;;;;;;;24.98;15.35;;;;;;;7.68;56.64;94722.84;4988938;28;20508;-63
2022/03/30 02:25:52;;;;;;;26.73;16.10;;;;;;;7.61;56.89;94720.69;4989236;28;20328;-61
2022/03/30 02:28:18;;;;;;;26.55;14.27;;;;;;;7.54;57.05;94720.22;4989383;28;20084;-60
2022/03/30 02:30:44;;;;;;;19.65;15.07;;;;;;;7.44;57.26;94708.81;4989224;28;20042;-62
2022/03/30 02:33:09;;;;;;;23.48;14.93;;;;;;;7.61;57.45;94736.09;4988843;28;20031;-61
2022/03/30 02:35:35;;;;;;;25.88;15.80;;;;;;;7.38;57.29;94710.00;4989028;28;20589;-61
2022/03/30 02:38:00;;;;;;;23.25;13.55;;;;;;;7.47;57.50;94727.41;4989026;28;20405;-63
2022/03/30 02:40:26;;;;;;;21.10;14.55;;;;;;;7.27;57.71;94712.31;4987624;28;20060;-65
2022/03/30 02:42:51;;;;;;;24.42;14.35;;;;;;;7.28;58.14;94722.50;4989054;28;20092;-62
2022/03/30 02:45:17;;;;;;;19.65;14.50;;;;;;;7.53;58.06;94728.84;4988360;28;20038;-61
2022/03/30 02:50:27;;;;;;;22.63;14.15;;;;;;;7.27;58.06;94692.63;4989182;28;20405;-64
2022/03/30 02:52:52;;;;;;;20.05;13.82;;;;;;;7.37;58.34;94733.97;4988650;28;20050;-65
2022/03/30 02:55:18;;;;;;;22.83;14.57;;;;;;;7.26;58.26;94726.03;4989014;28;20102;-63
2022/03/30 02:57:43;;;;;;;23.77;15.85;;;;;;;7.25;58.42;94729.53;4988296;28;20489;-62
2022/03/30 03:00:09;;;;;;;20.83;14.55;;;;;;;7.21;58.58;94726.28;4988692;28;20105;-63
2022/03/30 03:02:35;;;;;;;28.10;15.02;;;;;;;7.25;58.84;94725.22;4988700;28;20034;-63
2022/03/30 03:05:01;;;;;;;29.75;16.23;;;;;;;7.20;58.86;94713.53;4988759;28;20022;-63
2022/03/30 03:07:27;;;;;;;21.55;15.40;;;;;;;6.99;58.71;94668.47;4987910;28;20125;-61
2022/03/30 03:09:53;;;;;;;20.98;14.95;;;;;;;7.25;58.75;94722.66;4988654;28;20029;-60
2022/03/30 03:12:18;;;;;;;25.33;14.82;;;;;;;7.24;58.92;94728.69;4988798;28;20097;-62
2022/03/30 03:14:44;;;;;;;21.08;15.30;;;;;;;6.29;59.09;94595.41;4988725;28;20030;-60
2022/03/30 03:17:09;;;;;;;21.25;14.30;;;;;;;6.95;59.19;94687.53;4988787;28;20486;-63
2022/03/30 03:19:35;;;;;;;20.73;13.88;;;;;;;6.84;59.57;94665.91;4988603;28;20450;-60
2022/03/30 03:22:00;;;;;;;25.40;14.95;;;;;;;7.17;59.42;94705.13;4987999;28;20060;-60
2022/03/30 03:24:26;;;;;;;24.67;14.75;;;;;;;7.26;59.39;94713.22;4988517;28;20026;-60
2022/03/30 03:26:51;;;;;;;21.50;15.05;;;;;;;7.13;59.34;94698.50;4988769;28;20030;-62
2022/03/30 03:29:17;;;;;;;18.05;13.32;;;;;;;7.20;59.65;94713.53;4988763;28;20096;-62
2022/03/30 03:31:42;;;;;;;21.90;13.07;;;;;;;6.90;59.96;94663.84;4988529;28;20578;-63
2022/03/30 03:34:08;;;;;;;25.05;14.02;;;;;;;7.18;59.72;94717.03;4988118;28;20505;-63
2022/03/30 03:36:34;;;;;;;25.98;14.63;;;;;;;7.06;60.50;94704.06;4988342;28;20169;-63
2022/03/30 03:39:00;;;;;;;20.27;13.93;;;;;;;6.97;60.55;94693.38;4988519;28;20038;-63
2022/03/30 03:41:26;;;;;;;22.05;14.45;;;;;;;6.67;60.91;94669.38;4988734;28;20033;-60
2022/03/30 03:43:52;;;;;;;21.23;15.43;;;;;;;6.92;60.70;94713.31;4988339;28;20034;-63
2022/03/30 03:46:17;;;;;;;22.13;14.07;;;;;;;6.95;61.06;94708.03;4988216;28;20165;-60
2022/03/30 03:48:42;;;;;;;30.60;15.50;;;;;;;6.90;60.64;94707.41;4988607;28;20109;-62
2022/03/30 03:51:08;;;;;;;26.75;14.60;;;;;;;6.91;61.10;94709.09;4988466;28;20508;-61
2022/03/30 03:53:35;;;;;;;28.40;14.52;;;;;;;6.88;61.15;94706.69;4988391;28;20068;-61
2022/03/30 03:56:02;;;;;;;21.73;14.82;;;;;;;6.76;61.21;94707.34;4988753;28;20076;-62
2022/03/30 03:58:27;;;;;;;25.98;14.85;;;;;;;6.79;61.47;94715.69;4988048;28;20023;-63
2022/03/30 04:00:53;;;;;;;23.48;14.48;;;;;;;6.75;61.73;94708.25;4988090;28;20057;-62
2022/03/30 04:03:18;;;;;;;21.35;14.55;;;;;;;6.73;62.07;94715.19;4988313;28;20026;-63
2022/03/30 04:05:44;;;;;;;22.05;14.27;;;;;;;6.77;61.83;94709.00;4988711;28;20197;-64
2022/03/30 04:08:10;;;;;;;28.85;15.48;;;;;;;6.70;61.52;94705.91;4988216;28;20132;-62
2022/03/30 04:10:36;;;;;;;28.20;14.27;;;;;;;6.74;61.87;94706.59;4988141;28;20045;-63
2022/03/30 04:13:06;;;;;;;23.63;14.80;;;;;;;6.68;62.05;94720.56;4987944;28;20096;-61
2022/03/30 04:15:32;;;;;;;28.20;15.55;;;;;;;6.58;62.13;94686.09;4988241;28;20477;-61
2022/03/30 04:17:58;;;;;;;28.52;14.45;;;;;;;6.76;61.92;94712.47;4988142;28;20026;-62
2022/03/30 04:20:23;;;;;;;25.17;16.10;;;;;;;6.46;61.58;94669.63;4991634;28;20045;-62
2022/03/30 04:22:49;;;;;;;22.25;15.15;;;;;;;6.55;61.94;94678.56;4991404;28;20517;-64
2022/03/30 04:25:14;;;;;;;32.78;17.50;;;;;;;6.43;61.88;94668.03;4991488;28;20066;-64
2022/03/30 04:27:45;;;;;;;33.45;17.23;;;;;;;6.80;61.71;94725.06;4991714;28;20034;-62
2022/03/30 04:30:10;;;;;;;25.27;17.52;;;;;;;6.20;61.58;94630.03;4991280;28;20033;-62
2022/03/30 04:32:36;;;;;;;30.65;17.33;;;;;;;6.95;61.26;94710.59;4991794;28;20018;-65
2022/03/30 04:35:01;;;;;;;29.60;16.95;;;;;;;7.03;60.69;94701.66;4991252;28;20065;-62
2022/03/30 04:37:27;;;;;;;25.80;16.30;;;;;;;7.11;60.49;94704.63;4991571;28;20025;-63
2022/03/30 04:39:52;;;;;;;26.48;15.27;;;;;;;7.27;60.30;94712.31;4991479;28;20023;-62
2022/03/30 04:42:20;;;;;;;28.17;16.02;;;;;;;6.94;60.27;94675.59;4991564;28;20030;-61
2022/03/30 04:44:46;;;;;;;25.85;16.80;;;;;;;7.10;60.97;94706.38;4991459;28;20030;-62
2022/03/30 04:47:11;;;;;;;24.23;16.38;;;;;;;6.96;60.60;94662.69;4991100;28;20026;-61
2022/03/30 04:49:37;;;;;;;25.38;16.60;;;;;;;7.35;60.11;94716.09;4991407;28;20048;-61
2022/03/30 04:52:02;;;;;;;28.88;17.05;;;;;;;7.30;60.25;94712.97;4990755;28;20075;-63
2022/03/30 04:54:28;;;;;;;29.50;17.88;;;;;;;7.27;60.49;94712.31;5002647;28;20455;-61
2022/03/30 04:56:54;;;;;;;32.33;17.77;;;;;;;7.14;60.31;94686.50;5003972;28;20021;-63
2022/03/30 04:59:19;;;;;;;29.50;17.77;;;;;;;7.27;60.09;94717.44;4993905;28;20486;-61
2022/03/30 05:01:45;;;;;;;24.40;17.27;;;;;;;7.17;60.11;94707.69;5002084;28;20040;-63
2022/03/30 05:04:10;;;;;;;31.73;18.90;;;;;;;7.33;60.47;94717.13;5007800;28;20497;-64
2022/03/30 05:06:35;;;;;;;25.92;17.95;;;;;;;7.38;59.90;94719.41;5010071;28;20030;-63
2022/03/30 05:09:02;;;;;;;26.92;17.17;;;;;;;7.39;60.03;94729.59;5009715;28;20022;-62
2022/03/30 05:11:27;;;;;;;25.38;17.35;;;;;;;7.51;59.73;94723.78;5009624;28;20030;-60
2022/03/30 05:13:53;;;;;;;23.15;15.82;;;;;;;7.49;59.54;94715.34;5009659;28;20133;-61
2022/03/30 05:16:18;;;;;;;26.85;16.85;;;;;;;7.63;59.07;94714.56;5007982;28;20042;-64
2022/03/30 05:18:44;;;;;;;31.55;16.17;;;;;;;7.62;59.18;94700.06;5009603;28;20033;-63
2022/03/30 05:21:09;;;;;;;27.48;17.05;;;;;;;7.79;58.45;94701.72;5008015;28;20042;-62
2022/03/30 05:23:36;;;;;;;28.63;17.45;;;;;;;7.73;58.42;94694.34;4999033;28;20474;-61
2022/03/30 05:26:03;;;;;;;26.02;17.75;;;;;;;8.06;57.63;94708.72;4997755;28;20061;-61
2022/03/30 05:28:29;;;;;;;25.38;16.10;;;;;;;8.30;57.50;94724.47;5002631;28;20034;-63
2022/03/30 05:30:54;;;;;;;23.77;16.77;;;;;;;7.79;57.39;94639.25;5009040;28;20097;-62
2022/03/30 05:33:20;;;;;;;24.98;16.17;;;;;;;8.45;56.86;94722.75;5009334;28;20481;-62
2022/03/30 05:35:48;;;;;;;23.42;15.00;;;;;;;8.39;56.37;94687.09;5008390;28;20038;-62
2022/03/30 05:38:13;;;;;;;24.98;14.77;;;;;;;8.52;56.28;94694.94;5009514;28;20032;-63
2022/03/30 05:40:40;;;;;;;22.90;16.45;;;;;;;8.87;55.67;94718.53;5009425;28;20029;-60
2022/03/30 05:43:06;;;;;;;19.60;14.80;;;;;;;9.04;55.03;94714.09;5009365;28;20030;-65
2022/03/30 05:45:31;;;;;;;25.88;15.77;;;;;;;8.90;55.64;94713.16;5008971;28;20030;-58
2022/03/30 05:47:57;;;;;;;27.58;16.73;;;;;;;8.98;55.12;94710.94;5005289;28;20153;-60
2022/03/30 05:50:23;;;;;;;30.77;18.55;;;;;;;8.91;54.37;94678.84;4997948;28;20052;-59
2022/03/30 05:52:49;;;;;;;25.38;16.23;;;;;;;8.54;54.00;94593.69;5004752;28;20089;-65
2022/03/30 05:55:15;;;;;;;29.73;18.17;;;;;;;9.24;53.25;94672.50;4989728;28;20042;-59
2022/03/30 05:57:40;;;;;;;27.63;18.00;;;;;;;9.62;52.79;94707.84;4986859;28;20177;-61
2022/03/30 06:00:08;;;;;;;28.83;17.35;;;;;;;9.70;52.31;94702.19;4997519;28;20030;-60
2022/03/30 06:02:33;;;;;;;30.02;18.23;;;;;;;9.73;52.51;94692.53;4987700;28;20037;-60
2022/03/30 06:04:59;;;;;;;24.98;17.75;;;;;;;9.78;51.80;94681.13;5005272;28;20485;-59
2022/03/30 06:07:26;;;;;;;28.73;17.65;;;;;;;10.10;51.55;94704.72;5009405;28;20465;-66
2022/03/30 06:09:51;;;;;;;26.17;16.75;;;;;;;10.18;50.91;94696.50;4994719;28;20065;-64
2022/03/30 06:12:17;;;;;;;27.35;18.25;;;;;;;10.46;49.97;94721.28;4989105;28;20062;-66
2022/03/30 06:14:42;;;;;;;35.67;19.70;;;;;;;10.35;50.12;94705.75;4996284;28;20091;-65
2022/03/30 06:17:09;;;;;;;25.75;17.92;;;;;;;9.92;50.23;94639.84;4992867;28;20111;-66
2022/03/30 06:19:37;;;;;;;28.00;18.50;;;;;;;10.40;50.05;94696.75;5008856;28;20519;-61
2022/03/30 06:22:08;;;;;;;32.72;20.15;;;;;;;10.65;49.87;94720.88;5008080;28;20287;-64
2022/03/30 06:24:36;;;;;;;32.05;21.17;;;;;;;10.82;49.59;94715.41;5008657;28;20113;-63
2022/03/30 06:27:01;;;;;;;29.75;18.00;;;;;;;10.67;48.53;94662.28;5008507;28;20493;-58
2022/03/30 06:29:27;;;;;;;31.65;18.92;;;;;;;11.17;47.83;94721.63;5007369;28;20156;-59
2022/03/30 06:31:52;;;;;;;28.02;18.67;;;;;;;11.06;48.51;94716.38;5008242;28;20508;-62
2022/03/30 06:34:18;;;;;;;34.00;19.88;;;;;;;10.93;48.37;94716.41;5008320;28;20417;-62
2022/03/30 06:36:44;;;;;;;36.42;21.25;;;;;;;11.04;48.79;94729.38;5008595;28;20033;-64
2022/03/30 06:39:09;;;;;;;30.60;20.67;;;;;;;10.95;48.10;94705.06;5008272;28;20065;-61
2022/03/30 06:41:35;;;;;;;30.38;20.35;;;;;;;11.22;47.52;94727.28;5008285;28;20029;-64
2022/03/30 06:44:01;;;;;;;34.67;22.40;;;;;;;11.19;47.84;94728.31;5008960;28;20033;-60
2022/03/30 06:46:28;;;;;;;33.92;22.05;;;;;;;11.34;47.84;94723.81;5008310;28;20405;-64
2022/03/30 06:48:54;;;;;;;36.65;22.98;;;;;;;11.13;47.63;94695.19;5008277;28;20029;-58
2022/03/30 06:51:19;;;;;;;38.47;23.48;;;;;;;11.48;47.54;94733.19;5006630;28;20398;-59
2022/03/30 06:53:46;;;;;;;38.20;22.85;;;;;;;11.56;47.02;94737.81;5008193;28;20026;-61
2022/03/30 06:56:12;;;;;;;51.72;24.92;;;;;;;11.67;46.58;94730.09;5008197;28;20057;-58
2022/03/30 06:58:37;;;;;;;47.00;24.40;;;;;;;11.70;46.70;94737.63;5007757;28;20468;-60
2022/03/30 07:01:03;;;;;;;38.17;25.05;;;;;;;11.64;46.41;94714.84;5008349;28;20026;-58
2022/03/30 07:03:29;;;;;;;37.53;24.92;;;;;;;11.93;46.17;94737.75;5008216;28;20026;-61
2022/03/30 07:05:55;;;;;;;40.90;25.92;;;;;;;11.93;46.26;94724.84;5008515;28;20109;-63
2022/03/30 07:11:07;;;;;;;35.65;22.00;;;;;;;12.46;45.29;94738.16;4985347;28;20124;-62
2022/03/30 07:13:33;;;;;;;34.47;22.75;;;;;;;12.55;44.55;94736.63;4985709;28;20513;-60
2022/03/30 07:15:59;;;;;;;34.97;21.88;;;;;;;12.62;44.69;94729.22;4985611;28;20533;-61
2022/03/30 07:18:25;;;;;;;45.67;24.60;;;;;;;12.75;43.86;94734.31;4997338;28;20038;-60
2022/03/30 07:20:51;;;;;;;35.13;23.42;;;;;;;12.71;43.86;94725.97;5005196;28;20042;-63
2022/03/30 07:23:18;;;;;;;36.00;23.70;;;;;;;12.66;44.48;94721.13;5004566;28;20049;-63
2022/03/30 07:25:43;;;;;;;36.85;23.35;;;;;;;12.53;43.99;94691.97;5004722;28;20049;-60
2022/03/30 07:28:09;;;;;;;38.30;22.73;;;;;;;12.87;44.13;94721.25;5004138;28;20038;-62
2022/03/30 07:30:36;;;;;;;32.00;21.77;;;;;;;12.91;43.08;94700.31;5005067;28;20141;-62
2022/03/30 07:33:02;;;;;;;31.13;21.52;;;;;;;12.99;43.18;94683.25;5004634;28;20056;-61
2022/03/30 07:35:28;;;;;;;47.78;25.45;;;;;;;13.32;43.57;94720.41;5004636;28;20034;-59
2022/03/30 07:37:55;;;;;;;32.78;21.52;;;;;;;13.45;42.80;94714.28;5005227;28;20034;-60
2022/03/30 07:40:24;;;;;;;32.47;23.25;;;;;;;13.51;42.25;94718.94;5005055;28;20484;-61
2022/03/30 07:42:51;;;;;;;32.78;23.10;;;;;;;13.16;42.20;94687.09;5005174;28;20033;-61
2022/03/30 07:45:17;;;;;;;51.85;23.67;;;;;;;13.54;42.42;94716.97;5004714;28;20461;-60
2022/03/30 07:47:44;;;;;;;37.70;23.50;;;;;;;13.66;42.50;94719.50;4999762;28;20121;-59
2022/03/30 07:50:11;;;;;;;38.88;25.38;;;;;;;13.62;42.29;94731.88;4987930;28;20029;-59
2022/03/30 07:52:37;;;;;;;37.47;24.48;;;;;;;13.49;42.16;94720.84;4987861;28;20049;-61
2022/03/30 07:55:04;;;;;;;46.35;25.92;;;;;;;13.56;42.37;94722.84;4991518;28;20414;-59
2022/03/30 07:57:30;;;;;;;37.25;25.42;;;;;;;13.74;42.15;94714.53;4991414;28;20029;-60
2022/03/30 07:59:57;;;;;;;37.92;24.33;;;;;;;13.84;41.47;94702.50;4991464;28;20145;-60
2022/03/30 08:02:23;;;;;;;35.28;22.35;;;;;;;13.89;41.10;94664.06;4995197;28;20021;-62
2022/03/30 08:04:49;;;;;;;34.88;22.83;;;;;;;13.90;40.61;94663.09;5011214;28;20036;-63
2022/03/30 08:07:15;;;;;;;36.25;22.35;;;;;;;14.31;39.92;94704.72;5010829;28;20025;-62
2022/03/30 08:09:42;;;;;;;43.75;25.08;;;;;;;14.56;39.50;94706.09;5009795;28;20025;-59
2022/03/30 08:12:09;;;;;;;32.55;23.55;;;;;;;14.92;39.61;94703.97;5010881;28;20109;-65
2022/03/30 08:14:35;;;;;;;39.03;23.88;;;;;;;15.10;38.73;94680.78;5010897;28;20038;-60
2022/03/30 08:17:00;;;;;;;37.72;23.60;;;;;;;15.52;37.75;94675.41;5010438;28;20026;-62
2022/03/30 08:19:25;;;;;;;32.45;22.60;;;;;;;15.56;37.03;94689.78;5010861;28;20405;-60
2022/03/30 08:24:35;;;;;;;29.40;22.35;;;;;;;15.07;38.26;94681.06;5010905;28;20037;-63
2022/03/30 08:27:01;;;;;;;35.72;22.10;;;;;;;15.28;37.53;94687.94;5011155;28;20025;-62
2022/03/30 08:29:26;;;;;;;30.33;22.48;;;;;;;15.43;37.30;94664.06;5010840;28;20057;-60
2022/03/30 08:31:52;;;;;;;32.58;21.90;;;;;;;16.13;36.05;94683.91;5010686;28;20296;-60
2022/03/30 08:34:19;;;;;;;38.53;23.15;;;;;;;16.46;35.79;94682.66;5010606;28;20456;-61
2022/03/30 08:36:45;;;;;;;37.55;22.88;;;;;;;16.88;34.75;94666.63;5011223;28;20038;-57
2022/03/30 08:39:13;;;;;;;36.45;21.90;;;;;;;17.01;34.53;94665.47;5010859;28;20367;-61
2022/03/30 08:41:43;;;;;;;33.35;23.70;;;;;;;17.26;33.66;94663.97;5010349;28;20480;-62
2022/03/30 08:44:10;;;;;;;33.13;22.30;;;;;;;17.76;33.06;94653.06;5010894;28;20092;-60
2022/03/30 08:46:38;;;;;;;30.65;21.80;;;;;;;18.05;32.47;94628.53;5009907;28;20030;-60
2022/03/30 08:49:03;;;;;;;32.85;21.23;;;;;;;18.50;31.69;94642.38;5010070;28;20386;-59
2022/03/30 08:51:31;;;;;;;31.55;21.45;;;;;;;18.26;32.34;94640.44;5009794;28;20054;-62
2022/03/30 08:53:57;;;;;;;33.92;22.23;;;;;;;18.37;31.78;94622.72;5009619;28;20037;-58
2022/03/30 08:56:24;;;;;;;32.13;21.02;;;;;;;19.00;31.10;94625.16;5010290;28;20021;-61
2022/03/30 08:58:54;;;;;;;31.92;19.27;;;;;;;19.26;29.80;94612.81;5009704;28;20115;-61
2022/03/30 09:01:22;;;;;;;28.73;18.63;;;;;;;19.34;29.35;94621.69;5009875;28;20065;-62
2022/03/30 09:03:58;;;;;;;30.80;20.63;;;;;;;19.32;29.84;94608.78;5008769;28;20033;-65
2022/03/30 09:06:50;;;;;;;29.90;18.30;;;;;;;19.35;28.95;94599.78;5008212;28;20105;-62
2022/03/30 09:09:26;;;;;;;29.60;16.88;;;;;;;19.32;28.90;94605.34;5009454;28;20034;-61
2022/03/30 09:11:55;;;;;;;30.67;14.77;;;;;;;19.60;27.96;94614.53;5009980;28;20037;-61
2022/03/30 09:14:26;;;;;;;25.15;15.10;;;;;;;19.78;27.76;94605.75;5009874;28;20030;-60
2022/03/30 09:16:57;;;;;;;25.95;15.65;;;;;;;21.32;25.65;94562.75;5009860;28;20061;-63
2022/03/30 09:19:23;;;;;;;27.02;16.10;;;;;;;22.44;24.29;94543.78;5008914;28;20041;-61
2022/03/30 09:21:52;;;;;;;27.70;16.17;;;;;;;23.06;23.94;94562.75;4998551;28;20045;-61
2022/03/30 09:24:21;;;;;;;29.83;16.13;;;;;;;23.83;23.10;94577.16;5006019;28;20105;-60
2022/03/30 09:26:47;;;;;;;33.97;18.63;;;;;;;26.38;20.37;94571.88;5001923;28;20042;-64
2022/03/30 09:29:13;;;;;;;28.95;17.05;;;;;;;27.60;18.90;94558.84;4997280;28;20030;-64
2022/03/30 09:31:41;;;;;;;29.65;15.45;;;;;;;27.99;18.45;94575.53;5004367;28;20406;-65
2022/03/30 09:34:09;;;;;;;24.10;12.32;;;;;;;26.22;18.83;94570.47;5004165;28;20065;-60
2022/03/30 09:36:37;;;;;;;22.95;16.02;;;;;;;25.83;19.65;94569.44;5005113;28;20041;-62
2022/03/30 09:39:04;;;;;;;20.63;13.88;;;;;;;25.82;19.52;94573.88;4991538;28;20112;-64
2022/03/30 09:41:50;;;;;;;24.92;14.18;;;;;;;26.20;19.12;94562.75;4998447;28;20066;-61
2022/03/30 09:44:17;;;;;;;21.50;13.15;;;;;;;25.64;18.82;94548.06;5002844;28;20034;-62
2022/03/30 09:47:06;;;;;;;26.27;17.17;;;;;;;26.20;18.53;94530.22;5005646;28;20405;-61
2022/03/30 09:49:37;;;;;;;23.38;13.32;;;;;;;25.98;17.99;94498.75;4997874;28;20092;-61
2022/03/30 09:52:19;;;;;;;17.33;10.60;;;;;;;28.12;16.01;94528.72;5004528;28;20139;-63
2022/03/30 09:54:50;;;;;;;22.45;11.55;;;;;;;30.31;14.90;94524.28;5001702;28;20045;-63
2022/03/30 09:57:17;;;;;;;18.80;10.88;;;;;;;31.22;13.94;94526.50;5005384;28;20399;-67
2022/03/30 09:59:59;;;;;;;17.90;9.50;;;;;;;30.11;14.17;94507.91;4998784;28;20472;-60
2022/03/30 10:02:30;;;;;;;18.70;9.52;;;;;;;29.69;14.52;94516.69;5001772;28;20338;-60
2022/03/30 10:04:56;;;;;;;17.65;8.93;;;;;;;29.06;14.46;94502.84;5005353;28;20056;-66
2022/03/30 10:07:22;;;;;;;13.77;8.75;;;;;;;28.82;15.10;94504.56;5005727;28;20058;-62
2022/03/30 10:09:49;;;;;;;15.57;10.32;;;;;;;30.52;14.25;94500.84;4993063;28;20018;-60
2022/03/30 10:12:17;;;;;;;17.05;9.80;;;;;;;29.99;13.82;94476.81;4999198;28;20048;-63
2022/03/30 10:14:45;;;;;;;22.92;10.10;;;;;;;29.60;14.70;94491.50;5000481;28;20046;-67
2022/03/30 10:17:11;;;;;;;19.38;9.15;;;;;;;29.99;13.82;94482.13;4998417;28;20040;-68
2022/03/30 10:19:40;;;;;;;13.80;8.23;;;;;;;26.91;15.81;94473.91;5000493;28;20136;-63
2022/03/30 10:22:36;;;;;;;17.17;9.68;;;;;;;26.64;16.51;94469.75;4995009;28;20139;-60
2022/03/30 10:25:26;;;;;;;14.88;8.15;;;;;;;27.26;15.78;94484.09;5002949;28;20029;-61
2022/03/30 10:28:14;;;;;;;17.67;8.83;;;;;;;26.44;16.82;94452.09;4998695;28;20038;-63
2022/03/30 10:30:43;;;;;;;15.57;7.13;;;;;;;24.67;18.12;94492.00;5000721;28;20828;-60
2022/03/30 10:33:10;;;;;;;12.68;6.75;;;;;;;25.60;16.83;94477.41;5004205;28;20060;-64
2022/03/30 10:35:41;;;;;;;15.13;7.10;;;;;;;27.79;14.99;94464.38;4989886;28;20033;-61
2022/03/30 10:38:08;;;;;;;14.95;7.35;;;;;;;29.26;13.60;94457.47;4995731;28;20041;-62
2022/03/30 10:40:35;;;;;;;13.45;7.40;;;;;;;27.11;15.71;94463.22;5006087;28;20386;-62
2022/03/30 10:43:06;;;;;;;15.32;7.15;;;;;;;28.20;14.32;94446.28;5008238;28;20113;-58
2022/03/30 10:45:57;;;;;;;11.52;6.57;;;;;;;27.48;14.61;94473.16;5001026;28;20023;-63
2022/03/30 10:48:37;;;;;;;12.73;5.88;;;;;;;23.11;18.39;94445.50;4988739;28;20053;-61
2022/03/30 10:51:08;;;;;;;10.95;5.65;;;;;;;24.84;16.81;94458.19;5001227;28;20061;-60
2022/03/30 10:53:34;;;;;;;11.95;6.63;;;;;;;24.98;16.41;94395.75;5007597;28;20095;-63
2022/03/30 10:56:09;;;;;;;15.82;7.70;;;;;;;24.70;17.07;94454.69;5008243;28;20409;-60
2022/03/30 10:58:59;;;;;;;12.43;7.05;;;;;;;23.50;18.32;94435.53;5006705;28;20388;-63
2022/03/30 11:01:33;;;;;;;14.23;6.77;;;;;;;24.19;17.79;94457.69;5008104;28;20470;-61
2022/03/30 11:04:11;;;;;;;13.75;6.30;;;;;;;25.70;16.66;94446.13;5007755;28;20323;-61
2022/03/30 11:06:39;;;;;;;13.63;7.15;;;;;;;25.08;17.73;94446.25;5007296;28;20030;-59
2022/03/30 11:09:09;;;;;;;14.38;6.43;;;;;;;23.23;18.56;94455.53;5007931;28;20030;-59
2022/03/30 11:11:44;;;;;;;10.05;6.22;;;;;;;24.31;18.20;94444.78;5007206;28;20038;-56
2022/03/30 11:14:34;;;;;;;14.07;5.97;;;;;;;22.33;19.17;94449.69;5007129;28;20026;-56
2022/03/30 11:17:05;;;;;;;11.60;6.38;;;;;;;23.77;18.35;94451.50;5007138;28;20080;-58
2022/03/30 11:19:56;;;;;;;14.00;7.32;;;;;;;24.28;18.13;94445.97;5007131;28;20026;-57
2022/03/30 11:22:24;;;;;;;12.77;6.05;;;;;;;23.11;19.22;94442.06;4986520;28;20139;-55
2022/03/30 11:25:22;;;;;;;12.07;5.90;;;;;;;23.01;18.73;94450.25;4987786;28;20037;-57
2022/03/30 11:28:01;;;;;;;12.32;5.45;;;;;;;21.95;20.04;94452.38;4987889;28;20073;-57
2022/03/30 11:30:37;;;;;;;12.30;5.28;;;;;;;23.30;19.02;94444.06;4991550;28;20023;-57
2022/03/30 11:33:19;;;;;;;14.20;5.88;;;;;;;23.47;18.59;94420.94;4992119;28;20092;-58
2022/03/30 11:35:48;;;;;;;10.13;5.47;;;;;;;23.57;18.73;94425.88;5003108;28;20038;-58
2022/03/30 11:38:42;;;;;;;14.35;7.43;;;;;;;22.82;19.37;94430.63;5010291;28;20038;-61